Terminal Aerodrome Forecast
Issued by NWS

Home | Current Version | Previous Version | Text Only | Print | Product List | Glossary On
Versions: 1 2 3 4 5 6 7 8 9 10 11 12 13 14 15 16 17 18 19 20 21 22 23
000
FTUS41 KILN 022300
TAFLCK
TAF
KLCK 022330Z 0300/0324 27004KT P6SM FEW030 SCT250
     FM030600 VRB02KT 4SM BR SKC
     FM030900 VRB03KT 2SM BR SKC
      TEMPO 0310/0312 1/2SM FG
     FM031400 20004KT P6SM SCT035=

USA.gov is the U.S. government's official web portal to all federal, state and local government web resources and services.